createdAt,value
2023-02-19T00:02:10.089Z,71.98
2023-02-19T00:04:38.837Z,72.16
2023-02-19T00:07:08.803Z,71.80
2023-02-19T00:09:37.889Z,72.38
2023-02-19T00:12:07.044Z,72.34
2023-02-19T00:14:35.307Z,72.75
2023-02-19T00:17:03.846Z,72.52
2023-02-19T00:19:32.230Z,72.63
2023-02-19T00:22:01.106Z,72.68
2023-02-19T00:24:31.046Z,72.53
2023-02-19T00:26:59.661Z,73.30
2023-02-19T00:29:30.107Z,73.32
2023-02-19T00:31:58.670Z,73.30
2023-02-19T00:34:30.045Z,72.86
2023-02-19T00:36:58.271Z,73.35
2023-02-19T00:39:30.665Z,73.82
2023-02-19T00:42:01.098Z,74.07
2023-02-19T00:44:29.459Z,73.76
2023-02-19T00:46:58.075Z,73.28
2023-02-19T00:49:33.573Z,73.17
2023-02-19T00:52:02.057Z,73.13
2023-02-19T00:54:32.570Z,73.65
2023-02-19T00:57:01.262Z,74.06
2023-02-19T00:59:30.652Z,73.96
2023-02-19T01:01:59.828Z,74.53
2023-02-19T01:04:28.463Z,74.72
2023-02-19T01:06:57.014Z,74.23
2023-02-19T01:09:26.228Z,74.40
2023-02-19T01:11:55.882Z,74.40
2023-02-19T01:14:24.332Z,74.56
2023-02-19T01:16:53.481Z,74.13
2023-02-19T01:19:22.009Z,74.54
2023-02-19T01:21:50.688Z,73.88
2023-02-19T01:24:19.198Z,73.57
2023-02-19T01:26:47.967Z,74.14
2023-02-19T01:29:18.534Z,73.21
2023-02-19T01:31:47.075Z,73.16
2023-02-19T01:34:15.642Z,72.68
2023-02-19T01:36:44.440Z,73.40
2023-02-19T01:39:12.716Z,73.35
2023-02-19T01:41:43.049Z,72.60
2023-02-19T01:44:44.477Z,72.95
2023-02-19T01:47:14.841Z,73.10
2023-02-19T01:49:48.988Z,73.51
2023-02-19T01:52:23.684Z,73.65
2023-02-19T01:54:52.880Z,73.85
2023-02-19T01:57:25.489Z,74.28
2023-02-19T01:59:59.241Z,74.24
2023-02-19T02:02:29.083Z,74.85
2023-02-19T02:05:01.554Z,75.47
2023-02-19T02:07:47.727Z,74.65
2023-02-19T02:10:22.494Z,74.34
2023-02-19T02:12:52.419Z,74.88
2023-02-19T02:15:22.382Z,75.05
2023-02-19T02:18:02.833Z,74.73
2023-02-19T02:20:43.605Z,75.03
2023-02-19T02:23:20.819Z,75.24
2023-02-19T02:26:11.347Z,75.77
2023-02-19T02:29:07.680Z,75.52
2023-02-19T02:31:41.444Z,75.85
2023-02-19T02:34:20.893Z,75.81
2023-02-19T02:36:55.774Z,76.11
2023-02-19T02:39:27.141Z,75.81
2023-02-19T02:42:12.118Z,75.38
2023-02-19T02:44:43.040Z,75.06
2023-02-19T02:47:33.383Z,75.30
2023-02-19T02:50:08.669Z,75.54
2023-02-19T02:52:57.225Z,75.74
2023-02-19T02:55:27.495Z,76.01
2023-02-19T02:57:56.549Z,75.97
2023-02-19T03:00:26.511Z,76.37
2023-02-19T03:02:56.880Z,75.89
2023-02-19T03:05:45.145Z,75.76
2023-02-19T03:08:17.634Z,75.79
2023-02-19T03:10:52.704Z,75.76
2023-02-19T03:13:46.323Z,76.13
2023-02-19T03:16:36.835Z,76.50
2023-02-19T03:19:20.302Z,76.13
2023-02-19T03:21:55.476Z,76.34
2023-02-19T03:24:52.072Z,76.08
2023-02-19T03:27:22.749Z,76.93
2023-02-19T03:29:54.959Z,76.79
2023-02-19T03:32:26.656Z,76.38
2023-02-19T03:35:01.300Z,76.29
2023-02-19T03:37:34.445Z,76.31
2023-02-19T03:40:04.961Z,76.28
2023-02-19T03:42:42.939Z,76.64
2023-02-19T03:45:25.801Z,76.12
2023-02-19T03:47:58.995Z,75.99
2023-02-19T03:50:35.818Z,75.60
2023-02-19T03:53:11.530Z,76.11
2023-02-19T03:55:46.449Z,76.27
2023-02-19T03:58:21.572Z,75.93
2023-02-19T04:01:02.079Z,76.27
2023-02-19T04:03:37.920Z,76.05
2023-02-19T04:06:14.112Z,76.42
2023-02-19T04:08:45.486Z,76.41
2023-02-19T04:11:18.976Z,76.83
2023-02-19T04:13:53.164Z,76.77
2023-02-19T04:16:25.980Z,77.22
2023-02-19T04:18:58.628Z,77.69
2023-02-19T04:21:31.605Z,77.73
2023-02-19T04:24:04.813Z,77.65
2023-02-19T04:26:34.937Z,77.62
2023-02-19T04:29:03.551Z,77.98
2023-02-19T04:31:36.133Z,78.27
2023-02-19T04:34:05.113Z,77.35
2023-02-19T04:36:35.870Z,77.72
2023-02-19T04:39:05.034Z,77.83
2023-02-19T04:41:33.546Z,78.16
2023-02-19T04:44:02.567Z,77.81
2023-02-19T04:46:31.028Z,77.88
2023-02-19T04:48:59.494Z,77.79
2023-02-19T04:51:27.921Z,77.84
2023-02-19T04:53:57.735Z,77.94
2023-02-19T04:56:26.013Z,77.91
2023-02-19T04:58:54.511Z,77.39
2023-02-19T05:01:23.674Z,77.64
2023-02-19T05:03:53.597Z,77.48
2023-02-19T05:06:22.057Z,77.69
2023-02-19T05:08:50.672Z,77.47
2023-02-19T05:11:20.452Z,77.93
2023-02-19T05:13:49.081Z,77.22
2023-02-19T05:16:19.294Z,77.46
2023-02-19T05:18:47.627Z,75.92
2023-02-19T05:21:16.651Z,76.14
2023-02-19T05:23:45.373Z,76.34
2023-02-19T05:26:18.407Z,77.00
2023-02-19T05:28:50.238Z,76.95
2023-02-19T05:31:19.609Z,77.26
2023-02-19T05:33:51.468Z,76.50
2023-02-19T05:36:25.481Z,76.55
2023-02-19T05:38:57.622Z,76.33
2023-02-19T05:41:28.019Z,76.76
2023-02-19T05:44:00.048Z,76.63
2023-02-19T05:46:31.135Z,77.00
2023-02-19T05:48:59.528Z,77.27
2023-02-19T05:51:28.538Z,77.53
2023-02-19T05:54:02.968Z,77.61
2023-02-19T05:56:35.947Z,77.99
2023-02-19T05:59:09.102Z,78.14
2023-02-19T06:01:39.894Z,78.04
2023-02-19T06:04:08.539Z,78.26
2023-02-19T06:06:37.168Z,78.00
2023-02-19T06:09:06.081Z,78.37
2023-02-19T06:11:35.104Z,78.49
2023-02-19T06:14:05.518Z,78.64
2023-02-19T06:16:35.763Z,78.83
2023-02-19T06:19:06.157Z,79.63
2023-02-19T06:21:34.705Z,80.86
2023-02-19T06:24:07.869Z,81.74
2023-02-19T06:26:37.857Z,82.21
2023-02-19T06:29:07.557Z,82.73
2023-02-19T06:31:35.874Z,83.21
2023-02-19T06:34:07.245Z,83.50
2023-02-19T06:36:36.124Z,83.65
2023-02-19T06:39:06.268Z,84.04
2023-02-19T06:41:34.931Z,84.21
2023-02-19T06:44:03.756Z,84.57
2023-02-19T06:46:34.203Z,84.66
2023-02-19T06:49:05.197Z,85.28
2023-02-19T06:51:33.730Z,85.45
2023-02-19T06:54:03.760Z,85.55
2023-02-19T06:56:34.158Z,85.74
2023-02-19T06:59:04.633Z,86.12
2023-02-19T07:01:36.046Z,86.32
2023-02-19T07:04:05.952Z,86.81
2023-02-19T07:06:35.058Z,86.80
2023-02-19T07:09:06.986Z,86.95
2023-02-19T07:11:37.954Z,87.03
2023-02-19T07:14:09.146Z,86.92
2023-02-19T07:16:39.467Z,87.00
2023-02-19T07:19:09.692Z,87.20
2023-02-19T07:21:39.230Z,87.03
2023-02-19T07:24:09.456Z,87.13
2023-02-19T07:26:42.112Z,87.09
2023-02-19T07:29:11.560Z,87.10
2023-02-19T07:31:41.481Z,87.08
2023-02-19T07:34:14.124Z,87.25
2023-02-19T07:36:42.921Z,87.31
2023-02-19T07:39:15.666Z,87.14
2023-02-19T07:41:45.588Z,86.97
2023-02-19T07:44:16.629Z,86.73
2023-02-19T07:46:49.333Z,86.48
2023-02-19T07:49:19.147Z,86.59
2023-02-19T07:51:47.761Z,86.36
2023-02-19T07:54:16.689Z,85.90
2023-02-19T07:56:45.171Z,85.63
2023-02-19T07:59:13.865Z,85.37
2023-02-19T08:01:59.923Z,85.33
2023-02-19T08:04:29.989Z,85.05
2023-02-19T08:06:58.414Z,84.90
2023-02-19T08:09:27.311Z,84.93
2023-02-19T08:12:13.182Z,84.57
2023-02-19T08:14:41.717Z,84.84
2023-02-19T08:17:10.776Z,85.27
2023-02-19T08:19:40.979Z,85.32
2023-02-19T08:22:11.426Z,85.89
2023-02-19T08:24:45.042Z,87.82
2023-02-19T08:27:14.512Z,88.64
2023-02-19T08:29:42.956Z,89.31
2023-02-19T08:32:11.429Z,90.08
2023-02-19T08:34:42.721Z,90.98
2023-02-19T08:37:12.430Z,92.44
2023-02-19T08:39:41.694Z,91.88
2023-02-19T08:42:11.538Z,92.32
2023-02-19T08:44:41.078Z,93.26
2023-02-19T08:47:09.621Z,94.20
2023-02-19T08:49:40.161Z,94.48
2023-02-19T08:52:11.432Z,94.25
2023-02-19T08:54:39.625Z,95.51
2023-02-19T08:57:08.161Z,95.01
2023-02-19T08:59:36.700Z,95.75
2023-02-19T09:02:06.867Z,95.75
2023-02-19T09:04:36.597Z,95.70
2023-02-19T09:07:07.777Z,96.04
2023-02-19T09:09:41.100Z,96.40
2023-02-19T09:12:12.678Z,96.92
2023-02-19T09:14:41.400Z,97.08
2023-02-19T09:17:11.288Z,97.11
2023-02-19T09:19:40.863Z,97.36
2023-02-19T09:22:09.219Z,97.75
2023-02-19T09:24:40.663Z,98.04
2023-02-19T09:27:10.564Z,98.35
2023-02-19T09:29:39.199Z,97.94
2023-02-19T09:32:08.526Z,97.87
2023-02-19T09:34:38.095Z,98.32
2023-02-19T09:37:06.443Z,98.61
2023-02-19T09:39:36.024Z,98.84
2023-02-19T09:42:16.713Z,98.41
2023-02-19T09:44:50.596Z,98.40
2023-02-19T09:47:21.869Z,98.09
2023-02-19T09:49:55.299Z,98.00
2023-02-19T09:52:32.182Z,98.10
2023-02-19T09:55:06.218Z,98.12
2023-02-19T09:57:37.461Z,98.03
2023-02-19T10:00:14.764Z,98.23
2023-02-19T10:02:44.272Z,97.67
2023-02-19T10:05:14.962Z,97.38
2023-02-19T10:07:45.593Z,97.76
2023-02-19T10:10:26.993Z,97.24
2023-02-19T10:13:01.870Z,97.21
2023-02-19T10:15:35.054Z,95.97
2023-02-19T10:18:04.506Z,95.82
2023-02-19T10:20:34.579Z,94.44
2023-02-19T10:23:05.190Z,94.56
2023-02-19T10:25:35.745Z,93.28
2023-02-19T10:28:11.145Z,91.66
2023-02-19T10:30:39.887Z,87.58
2023-02-19T10:33:12.916Z,87.71
2023-02-19T10:35:54.938Z,88.43
2023-02-19T10:38:28.520Z,87.00
2023-02-19T10:41:06.756Z,86.92
2023-02-19T10:43:41.813Z,85.70
2023-02-19T10:46:18.981Z,84.91
2023-02-19T10:48:51.985Z,86.05
2023-02-19T10:51:23.201Z,86.36
2023-02-19T10:54:04.311Z,83.37
2023-02-19T10:56:34.192Z,82.61
2023-02-19T10:59:25.734Z,81.85
2023-02-19T11:02:00.857Z,81.36
2023-02-19T11:04:34.155Z,80.74
2023-02-19T11:07:11.296Z,79.40
2023-02-19T11:09:41.576Z,78.28
2023-02-19T11:12:13.069Z,77.60
2023-02-19T11:14:45.039Z,76.06
2023-02-19T11:17:22.825Z,75.34
2023-02-19T11:19:55.166Z,74.74
2023-02-19T11:22:32.849Z,73.33
2023-02-19T11:25:07.626Z,72.57
2023-02-19T11:27:36.417Z,71.45
2023-02-19T11:30:40.703Z,71.48
2023-02-19T11:33:23.525Z,71.44
2023-02-19T11:35:53.461Z,70.37
2023-02-19T11:38:23.240Z,69.99
2023-02-19T11:40:56.959Z,69.55
2023-02-19T11:43:42.134Z,69.11
2023-02-19T11:46:21.717Z,68.81
2023-02-19T11:48:57.872Z,69.08
2023-02-19T11:51:52.158Z,68.35
2023-02-19T11:54:34.144Z,68.15
2023-02-19T11:57:14.073Z,68.61
2023-02-19T11:59:49.761Z,69.15
2023-02-19T12:02:35.999Z,68.42
2023-02-19T12:05:22.938Z,67.83
2023-02-19T12:08:27.400Z,67.25
2023-02-19T12:11:12.477Z,66.42
2023-02-19T12:14:17.250Z,66.37
2023-02-19T12:16:52.421Z,66.73
2023-02-19T12:19:45.884Z,65.09
2023-02-19T12:22:27.928Z,66.07
2023-02-19T12:25:13.875Z,65.52
2023-02-19T12:27:58.929Z,65.52
2023-02-19T12:30:46.107Z,65.42
2023-02-19T12:33:46.194Z,64.85
2023-02-19T12:36:29.153Z,65.44
2023-02-19T12:39:06.827Z,65.57
2023-02-19T12:41:46.051Z,65.04
2023-02-19T12:44:21.819Z,65.62
2023-02-19T12:46:55.434Z,64.27
2023-02-19T12:49:30.023Z,65.41
2023-02-19T12:52:04.423Z,65.60
2023-02-19T12:54:38.186Z,66.32
2023-02-19T12:57:13.685Z,66.88
2023-02-19T12:59:47.458Z,67.59
2023-02-19T13:02:21.861Z,69.51
2023-02-19T13:04:58.885Z,70.30
2023-02-19T13:07:34.663Z,70.52
2023-02-19T13:10:27.939Z,70.75
2023-02-19T13:13:00.667Z,70.63
2023-02-19T13:15:38.103Z,69.78
2023-02-19T13:18:14.334Z,69.20
2023-02-19T13:20:46.616Z,68.76
2023-02-19T13:23:38.912Z,69.07
2023-02-19T13:26:21.550Z,69.07
2023-02-19T13:29:03.865Z,70.67
2023-02-19T13:31:48.692Z,74.26
2023-02-19T13:34:31.296Z,79.63
2023-02-19T13:37:01.191Z,81.18
2023-02-19T13:39:33.098Z,82.72
2023-02-19T13:42:02.231Z,82.79
2023-02-19T13:44:36.800Z,80.23
2023-02-19T13:47:07.024Z,79.20
2023-02-19T13:49:44.567Z,79.87
2023-02-19T13:52:39.542Z,80.31
2023-02-19T13:55:46.720Z,80.32
2023-02-19T13:58:41.707Z,81.59
2023-02-19T14:01:11.861Z,81.24
2023-02-19T14:03:51.163Z,81.87
2023-02-19T14:06:19.732Z,81.92
2023-02-19T14:08:58.898Z,81.95
2023-02-19T14:12:05.068Z,82.56
2023-02-19T14:14:38.859Z,82.24
2023-02-19T14:17:26.512Z,82.23
2023-02-19T14:20:00.787Z,81.95
2023-02-19T14:23:12.028Z,80.47
2023-02-19T14:25:59.444Z,76.52
2023-02-19T14:28:38.455Z,74.40
2023-02-19T14:31:26.943Z,74.03
2023-02-19T14:34:03.273Z,73.17
2023-02-19T14:36:36.458Z,72.31
2023-02-19T14:39:07.630Z,72.59
2023-02-19T14:41:40.081Z,72.36
2023-02-19T14:44:15.806Z,72.00
2023-02-19T14:46:53.186Z,70.48
2023-02-19T14:49:29.399Z,71.11
2023-02-19T14:52:01.445Z,72.09
2023-02-19T14:54:38.977Z,72.59
2023-02-19T14:57:15.491Z,72.21
2023-02-19T14:59:54.547Z,72.76
2023-02-19T15:02:26.202Z,73.12
2023-02-19T15:04:55.835Z,74.53
2023-02-19T15:07:27.742Z,74.69
2023-02-19T15:09:58.611Z,75.27
2023-02-19T15:12:30.376Z,75.32
2023-02-19T15:15:02.937Z,75.91
2023-02-19T15:17:37.225Z,75.21
2023-02-19T15:20:10.801Z,75.73
2023-02-19T15:22:41.983Z,76.44
2023-02-19T15:25:18.438Z,76.47
2023-02-19T15:27:47.551Z,76.08
2023-02-19T15:30:22.945Z,77.20
2023-02-19T15:32:58.284Z,77.20
2023-02-19T15:35:28.388Z,77.69
2023-02-19T15:37:57.591Z,78.00
2023-02-19T15:40:32.728Z,77.75
2023-02-19T15:43:04.960Z,77.96
2023-02-19T15:45:44.387Z,77.58
2023-02-19T15:48:18.609Z,77.63
2023-02-19T15:50:52.408Z,77.69
2023-02-19T15:53:26.344Z,78.06
2023-02-19T15:56:03.024Z,78.38
2023-02-19T15:58:34.438Z,78.08
2023-02-19T16:01:06.508Z,78.38
2023-02-19T16:03:37.481Z,78.12
2023-02-19T16:06:11.329Z,78.67
2023-02-19T16:08:40.801Z,78.65
2023-02-19T16:11:29.567Z,78.47
2023-02-19T16:14:20.010Z,79.07
2023-02-19T16:16:52.691Z,79.53
2023-02-19T16:19:27.567Z,78.89
2023-02-19T16:21:57.701Z,79.13
2023-02-19T16:24:32.324Z,79.07
2023-02-19T16:27:01.349Z,78.63
2023-02-19T16:29:32.892Z,79.04
2023-02-19T16:32:04.433Z,79.44
2023-02-19T16:34:42.512Z,79.44
2023-02-19T16:37:31.694Z,79.34
2023-02-19T16:40:44.609Z,79.70
2023-02-19T16:43:40.237Z,79.31
2023-02-19T16:46:11.751Z,80.35
2023-02-19T16:48:41.798Z,82.08
2023-02-19T16:51:20.061Z,83.24
2023-02-19T16:53:50.419Z,84.42
2023-02-19T16:56:23.310Z,84.40
2023-02-19T16:58:52.485Z,84.49
2023-02-19T17:01:22.187Z,84.90
2023-02-19T17:03:51.794Z,84.02
2023-02-19T17:06:23.577Z,84.52
2023-02-19T17:08:52.650Z,85.46
2023-02-19T17:11:21.955Z,85.24
2023-02-19T17:13:50.961Z,84.90
2023-02-19T17:16:23.568Z,84.69
2023-02-19T17:18:52.708Z,84.94
2023-02-19T17:21:26.019Z,84.52
2023-02-19T17:23:57.164Z,84.75
2023-02-19T17:26:27.997Z,84.98
2023-02-19T17:28:57.831Z,84.30
2023-02-19T17:31:27.202Z,84.34
2023-02-19T17:33:56.940Z,84.51
2023-02-19T17:36:30.824Z,84.31
2023-02-19T17:39:01.067Z,83.96
2023-02-19T17:41:30.542Z,83.19
2023-02-19T17:43:59.520Z,83.61
2023-02-19T17:46:29.354Z,83.41
2023-02-19T17:49:00.557Z,83.05
2023-02-19T17:51:31.794Z,83.15
2023-02-19T17:54:00.710Z,83.20
2023-02-19T17:56:29.826Z,83.09
2023-02-19T17:59:01.265Z,83.22
2023-02-19T18:01:29.833Z,82.87
2023-02-19T18:03:58.586Z,82.82
2023-02-19T18:06:27.430Z,82.79
2023-02-19T18:08:58.405Z,82.59
2023-02-19T18:11:27.507Z,82.81
2023-02-19T18:13:56.339Z,83.39
2023-02-19T18:16:25.462Z,82.90
2023-02-19T18:18:53.958Z,82.92
2023-02-19T18:21:25.392Z,82.55
2023-02-19T18:23:54.038Z,82.83
2023-02-19T18:26:24.712Z,82.73
2023-02-19T18:28:57.101Z,83.21
2023-02-19T18:31:26.293Z,83.40
2023-02-19T18:33:55.999Z,83.42
2023-02-19T18:36:24.713Z,83.03
2023-02-19T18:38:53.994Z,83.11
2023-02-19T18:41:24.770Z,83.29
2023-02-19T18:43:54.097Z,83.41
2023-02-19T18:46:23.633Z,83.20
2023-02-19T18:48:53.004Z,82.99
2023-02-19T18:51:24.052Z,82.78
2023-02-19T18:53:54.885Z,82.83
2023-02-19T18:56:24.887Z,83.36
2023-02-19T18:58:55.006Z,83.50
2023-02-19T19:01:23.749Z,83.63
2023-02-19T19:03:53.175Z,83.81
2023-02-19T19:06:21.937Z,83.96
2023-02-19T19:08:52.839Z,84.43
2023-02-19T19:11:22.764Z,84.35
2023-02-19T19:13:52.945Z,83.86
2023-02-19T19:16:24.987Z,84.38
2023-02-19T19:18:54.050Z,84.53
2023-02-19T19:21:23.455Z,84.58
2023-02-19T19:23:53.326Z,84.38
2023-02-19T19:26:22.178Z,84.25
2023-02-19T19:28:52.743Z,83.90
2023-02-19T19:31:22.182Z,83.58
2023-02-19T19:33:51.992Z,84.04
2023-02-19T19:36:21.765Z,83.91
2023-02-19T19:38:51.181Z,83.95
2023-02-19T19:41:22.504Z,84.28
2023-02-19T19:43:53.924Z,84.49
2023-02-19T19:46:22.432Z,84.30
2023-02-19T19:48:54.045Z,84.14
2023-02-19T19:51:23.596Z,84.47
2023-02-19T19:53:52.164Z,84.16
2023-02-19T19:56:20.832Z,84.52
2023-02-19T19:58:49.924Z,84.05
2023-02-19T20:01:21.368Z,83.57
2023-02-19T20:03:53.143Z,83.25
2023-02-19T20:06:27.469Z,82.62
2023-02-19T20:09:01.334Z,83.00
2023-02-19T20:11:30.372Z,82.86
2023-02-19T20:13:59.374Z,82.74
2023-02-19T20:16:30.088Z,82.34
2023-02-19T20:19:00.994Z,82.42
2023-02-19T20:21:30.263Z,80.99
2023-02-19T20:23:59.040Z,78.73
2023-02-19T20:26:30.328Z,78.57
2023-02-19T20:29:00.200Z,78.19
2023-02-19T20:31:32.191Z,78.14
2023-02-19T20:34:02.814Z,77.48
2023-02-19T20:36:32.981Z,77.43
2023-02-19T20:39:01.590Z,76.45
2023-02-19T20:41:30.722Z,75.58
2023-02-19T20:43:59.863Z,76.45
2023-02-19T20:46:29.791Z,75.15
2023-02-19T20:49:00.975Z,74.25
2023-02-19T20:51:29.453Z,74.37
2023-02-19T20:53:58.284Z,74.75
2023-02-19T20:56:27.816Z,74.82
2023-02-19T20:58:57.799Z,75.45
2023-02-19T21:01:27.484Z,74.60
2023-02-19T21:03:56.286Z,74.73
2023-02-19T21:06:26.317Z,74.67
2023-02-19T21:08:54.823Z,73.10
2023-02-19T21:11:23.964Z,72.11
2023-02-19T21:13:53.024Z,71.39
2023-02-19T21:16:21.972Z,71.60
2023-02-19T21:18:50.691Z,71.94
2023-02-19T21:21:20.346Z,71.22
2023-02-19T21:23:50.787Z,71.08
2023-02-19T21:26:19.711Z,70.64
2023-02-19T21:28:48.498Z,70.38
2023-02-19T21:31:18.673Z,70.79
2023-02-19T21:33:47.688Z,69.47
2023-02-19T21:36:16.242Z,69.14
2023-02-19T21:38:44.996Z,67.95
2023-02-19T21:41:15.176Z,67.43
2023-02-19T21:43:44.509Z,67.88
2023-02-19T21:46:20.622Z,66.49
2023-02-19T21:48:50.771Z,67.33
2023-02-19T21:51:20.666Z,67.84
2023-02-19T21:53:49.300Z,66.78
2023-02-19T21:56:25.104Z,67.13
2023-02-19T21:58:53.573Z,67.12
2023-02-19T22:01:22.484Z,66.11
2023-02-19T22:03:51.521Z,65.71
2023-02-19T22:06:22.739Z,65.24
2023-02-19T22:08:51.159Z,65.48
2023-02-19T22:11:20.866Z,66.37
2023-02-19T22:13:51.341Z,66.92
2023-02-19T22:16:20.376Z,67.45
2023-02-19T22:18:53.504Z,66.36
2023-02-19T22:21:23.612Z,66.90
2023-02-19T22:23:53.862Z,65.14
2023-02-19T22:26:24.835Z,65.69
2023-02-19T22:28:58.337Z,65.23
2023-02-19T22:31:29.457Z,65.26
2023-02-19T22:33:58.392Z,65.25
2023-02-19T22:36:31.192Z,64.98
2023-02-19T22:39:00.348Z,64.28
2023-02-19T22:41:28.952Z,64.26
2023-02-19T22:43:59.844Z,64.08
2023-02-19T22:46:30.260Z,64.16
2023-02-19T22:49:00.181Z,64.36
2023-02-19T22:51:30.150Z,64.79
2023-02-19T22:54:01.529Z,64.85
2023-02-19T22:56:30.326Z,64.69
2023-02-19T22:59:04.464Z,64.91
2023-02-19T23:01:33.009Z,65.22
2023-02-19T23:04:01.789Z,65.20
2023-02-19T23:06:32.203Z,65.51
2023-02-19T23:09:05.832Z,65.36
2023-02-19T23:11:36.394Z,66.42
2023-02-19T23:14:07.314Z,66.35
2023-02-19T23:16:37.424Z,65.87
2023-02-19T23:19:07.308Z,65.51
2023-02-19T23:21:36.205Z,66.51
2023-02-19T23:24:05.175Z,66.44
2023-02-19T23:26:33.516Z,67.14
2023-02-19T23:29:02.467Z,67.15
2023-02-19T23:31:32.551Z,66.33
2023-02-19T23:34:00.850Z,66.60
2023-02-19T23:36:29.102Z,67.46
2023-02-19T23:38:58.059Z,66.79
2023-02-19T23:41:26.257Z,67.59
2023-02-19T23:43:55.929Z,67.03
2023-02-19T23:46:24.861Z,67.46
2023-02-19T23:48:55.235Z,66.63
2023-02-19T23:51:25.081Z,67.60
2023-02-19T23:53:55.107Z,67.72
2023-02-19T23:56:26.696Z,67.45
2023-02-19T23:58:55.684Z,67.15
